sensor_id;sensor_type;location;lat;lon;timestamp;P1;durP1;ratioP1;P2;durP2;ratioP2
51907;SDS011;39320;53.214;6.556;2023-08-06T00:00:20;2.58;;;2.35;;
51907;SDS011;39320;53.214;6.556;2023-08-06T00:02:46;3.20;;;2.90;;
51907;SDS011;39320;53.214;6.556;2023-08-06T00:05:12;2.83;;;2.63;;
51907;SDS011;39320;53.214;6.556;2023-08-06T00:07:38;3.45;;;2.88;;
51907;SDS011;39320;53.214;6.556;2023-08-06T00:10:04;3.20;;;2.58;;
51907;SDS011;39320;53.214;6.556;2023-08-06T00:12:30;3.10;;;2.80;;
51907;SDS011;39320;53.214;6.556;2023-08-06T00:14:56;2.90;;;2.70;;
51907;SDS011;39320;53.214;6.556;2023-08-06T00:17:21;3.25;;;2.85;;
51907;SDS011;39320;53.214;6.556;2023-08-06T00:19:47;2.90;;;2.63;;
51907;SDS011;39320;53.214;6.556;2023-08-06T00:22:13;2.90;;;2.50;;
51907;SDS011;39320;53.214;6.556;2023-08-06T00:24:38;3.08;;;2.80;;
51907;SDS011;39320;53.214;6.556;2023-08-06T00:27:04;2.97;;;2.78;;
51907;SDS011;39320;53.214;6.556;2023-08-06T00:29:30;4.03;;;3.30;;
51907;SDS011;39320;53.214;6.556;2023-08-06T00:31:56;3.17;;;2.88;;
51907;SDS011;39320;53.214;6.556;2023-08-06T00:34:21;4.05;;;3.55;;
51907;SDS011;39320;53.214;6.556;2023-08-06T00:36:47;4.05;;;3.10;;
51907;SDS011;39320;53.214;6.556;2023-08-06T00:39:13;2.95;;;2.75;;
51907;SDS011;39320;53.214;6.556;2023-08-06T00:41:38;3.35;;;2.95;;
51907;SDS011;39320;53.214;6.556;2023-08-06T00:44:04;3.42;;;2.85;;
51907;SDS011;39320;53.214;6.556;2023-08-06T00:46:31;3.28;;;2.80;;
51907;SDS011;39320;53.214;6.556;2023-08-06T00:48:57;3.00;;;2.80;;
51907;SDS011;39320;53.214;6.556;2023-08-06T00:51:23;2.97;;;2.70;;
51907;SDS011;39320;53.214;6.556;2023-08-06T00:53:50;3.53;;;2.97;;
51907;SDS011;39320;53.214;6.556;2023-08-06T00:56:18;3.75;;;2.63;;
51907;SDS011;39320;53.214;6.556;2023-08-06T00:58:44;3.43;;;3.13;;
51907;SDS011;39320;53.214;6.556;2023-08-06T01:01:11;2.83;;;2.63;;
51907;SDS011;39320;53.214;6.556;2023-08-06T01:03:37;4.25;;;2.80;;
51907;SDS011;39320;53.214;6.556;2023-08-06T01:06:03;3.00;;;2.70;;
51907;SDS011;39320;53.214;6.556;2023-08-06T01:08:48;2.80;;;2.53;;
51907;SDS011;39320;53.214;6.556;2023-08-06T01:14:06;3.00;;;2.70;;
51907;SDS011;39320;53.214;6.556;2023-08-06T01:16:40;2.83;;;2.63;;
51907;SDS011;39320;53.214;6.556;2023-08-06T01:19:15;3.28;;;2.97;;
51907;SDS011;39320;53.214;6.556;2023-08-06T01:21:44;3.22;;;2.92;;
51907;SDS011;39320;53.214;6.556;2023-08-06T01:24:10;2.40;;;2.20;;
51907;SDS011;39320;53.214;6.556;2023-08-06T01:32:07;3.50;;;3.00;;
51907;SDS011;39320;53.214;6.556;2023-08-06T01:34:36;3.28;;;2.97;;
51907;SDS011;39320;53.214;6.556;2023-08-06T01:37:04;2.70;;;2.50;;
51907;SDS011;39320;53.214;6.556;2023-08-06T01:39:32;3.42;;;2.72;;
51907;SDS011;39320;53.214;6.556;2023-08-06T01:41:58;5.40;;;2.90;;
51907;SDS011;39320;53.214;6.556;2023-08-06T01:44:24;3.53;;;2.80;;
51907;SDS011;39320;53.214;6.556;2023-08-06T01:46:50;3.80;;;3.17;;
51907;SDS011;39320;53.214;6.556;2023-08-06T01:49:15;3.67;;;3.15;;
51907;SDS011;39320;53.214;6.556;2023-08-06T01:51:41;3.30;;;2.90;;
51907;SDS011;39320;53.214;6.556;2023-08-06T01:54:07;3.85;;;3.45;;
51907;SDS011;39320;53.214;6.556;2023-08-06T01:56:32;3.17;;;2.88;;
51907;SDS011;39320;53.214;6.556;2023-08-06T01:58:58;4.30;;;3.90;;
51907;SDS011;39320;53.214;6.556;2023-08-06T02:01:24;4.40;;;3.22;;
51907;SDS011;39320;53.214;6.556;2023-08-06T02:03:50;4.60;;;3.60;;
51907;SDS011;39320;53.214;6.556;2023-08-06T02:06:15;3.65;;;3.35;;
51907;SDS011;39320;53.214;6.556;2023-08-06T02:08:41;4.05;;;3.40;;
51907;SDS011;39320;53.214;6.556;2023-08-06T02:11:07;3.70;;;3.33;;
51907;SDS011;39320;53.214;6.556;2023-08-06T02:13:32;3.40;;;3.15;;
51907;SDS011;39320;53.214;6.556;2023-08-06T02:15:58;3.88;;;3.47;;
51907;SDS011;39320;53.214;6.556;2023-08-06T02:18:24;4.05;;;3.50;;
51907;SDS011;39320;53.214;6.556;2023-08-06T02:20:59;4.13;;;3.42;;
51907;SDS011;39320;53.214;6.556;2023-08-06T02:26:04;4.03;;;3.63;;
51907;SDS011;39320;53.214;6.556;2023-08-06T02:28:30;5.82;;;3.78;;
51907;SDS011;39320;53.214;6.556;2023-08-06T02:30:57;4.10;;;3.70;;
51907;SDS011;39320;53.214;6.556;2023-08-06T02:33:23;3.88;;;3.58;;
51907;SDS011;39320;53.214;6.556;2023-08-06T02:35:49;4.13;;;3.72;;
51907;SDS011;39320;53.214;6.556;2023-08-06T02:38:14;4.05;;;3.42;;
51907;SDS011;39320;53.214;6.556;2023-08-06T02:40:46;5.78;;;3.70;;
51907;SDS011;39320;53.214;6.556;2023-08-06T02:43:12;4.43;;;3.65;;
51907;SDS011;39320;53.214;6.556;2023-08-06T02:45:38;4.40;;;4.05;;
51907;SDS011;39320;53.214;6.556;2023-08-06T02:48:04;4.90;;;4.47;;
51907;SDS011;39320;53.214;6.556;2023-08-06T02:50:30;3.72;;;3.40;;
51907;SDS011;39320;53.214;6.556;2023-08-06T02:52:56;4.22;;;3.85;;
51907;SDS011;39320;53.214;6.556;2023-08-06T02:55:21;4.47;;;4.07;;
51907;SDS011;39320;53.214;6.556;2023-08-06T02:57:47;4.55;;;4.15;;
51907;SDS011;39320;53.214;6.556;2023-08-06T03:00:13;4.50;;;4.10;;
51907;SDS011;39320;53.214;6.556;2023-08-06T03:02:39;4.57;;;4.18;;
51907;SDS011;39320;53.214;6.556;2023-08-06T03:05:04;4.18;;;3.78;;
51907;SDS011;39320;53.214;6.556;2023-08-06T03:07:31;4.50;;;4.10;;
51907;SDS011;39320;53.214;6.556;2023-08-06T03:09:58;4.38;;;4.03;;
51907;SDS011;39320;53.214;6.556;2023-08-06T03:12:26;5.38;;;4.88;;
51907;SDS011;39320;53.214;6.556;2023-08-06T03:14:52;4.07;;;3.70;;
51907;SDS011;39320;53.214;6.556;2023-08-06T03:17:18;4.63;;;4.20;;
51907;SDS011;39320;53.214;6.556;2023-08-06T03:19:43;4.40;;;4.00;;
51907;SDS011;39320;53.214;6.556;2023-08-06T03:22:09;4.43;;;4.03;;
51907;SDS011;39320;53.214;6.556;2023-08-06T03:24:35;4.40;;;4.00;;
51907;SDS011;39320;53.214;6.556;2023-08-06T03:27:00;4.18;;;3.88;;
51907;SDS011;39320;53.214;6.556;2023-08-06T03:29:26;3.65;;;3.35;;
51907;SDS011;39320;53.214;6.556;2023-08-06T03:31:52;4.18;;;3.78;;
51907;SDS011;39320;53.214;6.556;2023-08-06T03:34:18;4.03;;;3.70;;
51907;SDS011;39320;53.214;6.556;2023-08-06T03:36:44;4.68;;;3.88;;
51907;SDS011;39320;53.214;6.556;2023-08-06T03:39:09;4.55;;;3.80;;
51907;SDS011;39320;53.214;6.556;2023-08-06T03:41:35;3.92;;;3.13;;
51907;SDS011;39320;53.214;6.556;2023-08-06T03:44:01;5.10;;;3.88;;
51907;SDS011;39320;53.214;6.556;2023-08-06T03:46:29;4.03;;;3.72;;
51907;SDS011;39320;53.214;6.556;2023-08-06T03:48:57;4.10;;;3.65;;
51907;SDS011;39320;53.214;6.556;2023-08-06T03:51:23;4.03;;;3.63;;
51907;SDS011;39320;53.214;6.556;2023-08-06T03:53:48;3.55;;;3.25;;
51907;SDS011;39320;53.214;6.556;2023-08-06T03:56:14;3.63;;;3.28;;
51907;SDS011;39320;53.214;6.556;2023-08-06T03:58:40;4.07;;;3.78;;
51907;SDS011;39320;53.214;6.556;2023-08-06T04:01:05;4.22;;;3.83;;
51907;SDS011;39320;53.214;6.556;2023-08-06T04:03:31;3.58;;;3.28;;
51907;SDS011;39320;53.214;6.556;2023-08-06T04:05:57;3.97;;;3.67;;
51907;SDS011;39320;53.214;6.556;2023-08-06T04:08:22;3.72;;;3.35;;
51907;SDS011;39320;53.214;6.556;2023-08-06T04:10:52;4.25;;;3.50;;
51907;SDS011;39320;53.214;6.556;2023-08-06T04:13:18;3.97;;;3.58;;
51907;SDS011;39320;53.214;6.556;2023-08-06T04:15:44;3.85;;;3.35;;
51907;SDS011;39320;53.214;6.556;2023-08-06T04:18:10;3.85;;;3.45;;
51907;SDS011;39320;53.214;6.556;2023-08-06T04:20:42;3.63;;;3.25;;
51907;SDS011;39320;53.214;6.556;2023-08-06T04:23:08;3.95;;;3.55;;
51907;SDS011;39320;53.214;6.556;2023-08-06T04:25:34;4.78;;;3.67;;
51907;SDS011;39320;53.214;6.556;2023-08-06T04:28:00;3.28;;;2.97;;
51907;SDS011;39320;53.214;6.556;2023-08-06T04:30:25;3.72;;;3.28;;
51907;SDS011;39320;53.214;6.556;2023-08-06T04:32:51;3.75;;;3.40;;
51907;SDS011;39320;53.214;6.556;2023-08-06T04:35:17;3.65;;;3.25;;
51907;SDS011;39320;53.214;6.556;2023-08-06T04:37:42;4.00;;;3.40;;
51907;SDS011;39320;53.214;6.556;2023-08-06T04:40:08;3.45;;;3.15;;
51907;SDS011;39320;53.214;6.556;2023-08-06T04:42:34;3.95;;;3.60;;
51907;SDS011;39320;53.214;6.556;2023-08-06T04:45:01;3.40;;;3.10;;
51907;SDS011;39320;53.214;6.556;2023-08-06T04:47:27;3.58;;;3.28;;
51907;SDS011;39320;53.214;6.556;2023-08-06T04:49:53;3.58;;;3.28;;
51907;SDS011;39320;53.214;6.556;2023-08-06T04:52:19;3.90;;;3.50;;
51907;SDS011;39320;53.214;6.556;2023-08-06T04:54:44;4.03;;;3.35;;
51907;SDS011;39320;53.214;6.556;2023-08-06T04:57:10;3.30;;;3.00;;
51907;SDS011;39320;53.214;6.556;2023-08-06T04:59:36;3.83;;;3.53;;
51907;SDS011;39320;53.214;6.556;2023-08-06T05:02:01;3.47;;;3.03;;
51907;SDS011;39320;53.214;6.556;2023-08-06T05:04:27;3.60;;;3.03;;
51907;SDS011;39320;53.214;6.556;2023-08-06T05:06:53;3.30;;;2.88;;
51907;SDS011;39320;53.214;6.556;2023-08-06T05:09:19;3.97;;;3.13;;
51907;SDS011;39320;53.214;6.556;2023-08-06T05:11:47;4.93;;;3.13;;
51907;SDS011;39320;53.214;6.556;2023-08-06T05:14:14;3.38;;;3.08;;
51907;SDS011;39320;53.214;6.556;2023-08-06T05:16:40;3.53;;;3.22;;
51907;SDS011;39320;53.214;6.556;2023-08-06T05:19:05;3.58;;;3.20;;
51907;SDS011;39320;53.214;6.556;2023-08-06T05:21:31;3.58;;;3.28;;
51907;SDS011;39320;53.214;6.556;2023-08-06T05:23:57;3.60;;;3.30;;
51907;SDS011;39320;53.214;6.556;2023-08-06T05:26:22;3.92;;;2.95;;
51907;SDS011;39320;53.214;6.556;2023-08-06T05:28:48;3.72;;;3.42;;
51907;SDS011;39320;53.214;6.556;2023-08-06T05:31:14;3.80;;;3.25;;
51907;SDS011;39320;53.214;6.556;2023-08-06T05:33:39;3.53;;;3.22;;
51907;SDS011;39320;53.214;6.556;2023-08-06T05:36:05;3.65;;;3.35;;
51907;SDS011;39320;53.214;6.556;2023-08-06T05:38:31;3.40;;;3.10;;
51907;SDS011;39320;53.214;6.556;2023-08-06T05:40:56;4.13;;;3.80;;
51907;SDS011;39320;53.214;6.556;2023-08-06T05:43:22;3.70;;;3.38;;
51907;SDS011;39320;53.214;6.556;2023-08-06T05:45:51;3.40;;;3.10;;
51907;SDS011;39320;53.214;6.556;2023-08-06T05:48:17;3.72;;;3.05;;
51907;SDS011;39320;53.214;6.556;2023-08-06T05:50:43;3.65;;;3.35;;
51907;SDS011;39320;53.214;6.556;2023-08-06T05:53:09;4.07;;;3.67;;
51907;SDS011;39320;53.214;6.556;2023-08-06T05:55:35;3.95;;;3.65;;
51907;SDS011;39320;53.214;6.556;2023-08-06T05:58:00;4.38;;;3.55;;
51907;SDS011;39320;53.214;6.556;2023-08-06T06:00:26;3.80;;;3.25;;
51907;SDS011;39320;53.214;6.556;2023-08-06T06:02:52;3.95;;;3.10;;
51907;SDS011;39320;53.214;6.556;2023-08-06T06:05:18;4.13;;;3.40;;
51907;SDS011;39320;53.214;6.556;2023-08-06T06:07:43;3.72;;;3.42;;
51907;SDS011;39320;53.214;6.556;2023-08-06T06:10:09;3.65;;;3.20;;
51907;SDS011;39320;53.214;6.556;2023-08-06T06:12:35;3.42;;;3.08;;
51907;SDS011;39320;53.214;6.556;2023-08-06T06:15:00;3.85;;;3.47;;
51907;SDS011;39320;53.214;6.556;2023-08-06T06:17:27;3.42;;;3.13;;
51907;SDS011;39320;53.214;6.556;2023-08-06T06:19:52;3.55;;;3.20;;
51907;SDS011;39320;53.214;6.556;2023-08-06T06:22:18;3.10;;;2.80;;
51907;SDS011;39320;53.214;6.556;2023-08-06T06:24:44;4.95;;;3.13;;
51907;SDS011;39320;53.214;6.556;2023-08-06T06:27:09;4.47;;;3.25;;
51907;SDS011;39320;53.214;6.556;2023-08-06T06:29:35;3.47;;;3.17;;
51907;SDS011;39320;53.214;6.556;2023-08-06T06:32:01;3.03;;;2.72;;
51907;SDS011;39320;53.214;6.556;2023-08-06T06:34:27;2.78;;;2.53;;
51907;SDS011;39320;53.214;6.556;2023-08-06T06:36:52;3.45;;;2.65;;
51907;SDS011;39320;53.214;6.556;2023-08-06T06:39:18;2.65;;;2.45;;
51907;SDS011;39320;53.214;6.556;2023-08-06T06:41:44;3.25;;;2.67;;
51907;SDS011;39320;53.214;6.556;2023-08-06T06:44:09;2.85;;;2.45;;
51907;SDS011;39320;53.214;6.556;2023-08-06T06:46:35;2.83;;;2.53;;
51907;SDS011;39320;53.214;6.556;2023-08-06T06:49:01;2.92;;;2.63;;
51907;SDS011;39320;53.214;6.556;2023-08-06T06:51:27;2.40;;;2.20;;
51907;SDS011;39320;53.214;6.556;2023-08-06T06:53:53;3.20;;;2.70;;
51907;SDS011;39320;53.214;6.556;2023-08-06T06:56:18;2.67;;;2.47;;
51907;SDS011;39320;53.214;6.556;2023-08-06T06:58:44;2.60;;;2.28;;
51907;SDS011;39320;53.214;6.556;2023-08-06T07:01:10;3.40;;;2.70;;
51907;SDS011;39320;53.214;6.556;2023-08-06T07:03:37;2.95;;;2.50;;
51907;SDS011;39320;53.214;6.556;2023-08-06T07:06:03;2.60;;;2.40;;
51907;SDS011;39320;53.214;6.556;2023-08-06T07:08:30;2.92;;;2.60;;
51907;SDS011;39320;53.214;6.556;2023-08-06T07:10:59;2.92;;;2.45;;
51907;SDS011;39320;53.214;6.556;2023-08-06T07:13:27;2.75;;;2.35;;
51907;SDS011;39320;53.214;6.556;2023-08-06T07:15:53;2.65;;;2.38;;
51907;SDS011;39320;53.214;6.556;2023-08-06T07:18:20;2.88;;;2.55;;
51907;SDS011;39320;53.214;6.556;2023-08-06T07:20:52;2.38;;;2.17;;
51907;SDS011;39320;53.214;6.556;2023-08-06T07:23:22;2.38;;;2.08;;
51907;SDS011;39320;53.214;6.556;2023-08-06T07:25:49;2.65;;;2.20;;
51907;SDS011;39320;53.214;6.556;2023-08-06T07:28:15;2.58;;;2.38;;
51907;SDS011;39320;53.214;6.556;2023-08-06T07:30:41;2.58;;;2.30;;
51907;SDS011;39320;53.214;6.556;2023-08-06T07:33:08;2.50;;;2.00;;
51907;SDS011;39320;53.214;6.556;2023-08-06T07:35:34;2.08;;;1.88;;
51907;SDS011;39320;53.214;6.556;2023-08-06T07:38:00;2.22;;;2.03;;
51907;SDS011;39320;53.214;6.556;2023-08-06T07:40:27;3.17;;;2.20;;
51907;SDS011;39320;53.214;6.556;2023-08-06T07:42:53;2.72;;;2.53;;
51907;SDS011;39320;53.214;6.556;2023-08-06T07:45:18;2.25;;;2.05;;
51907;SDS011;39320;53.214;6.556;2023-08-06T07:47:44;2.88;;;2.30;;
51907;SDS011;39320;53.214;6.556;2023-08-06T07:50:10;3.38;;;2.20;;
51907;SDS011;39320;53.214;6.556;2023-08-06T07:52:36;2.35;;;2.15;;
51907;SDS011;39320;53.214;6.556;2023-08-06T07:55:02;3.55;;;2.30;;
51907;SDS011;39320;53.214;6.556;2023-08-06T07:57:32;2.40;;;2.20;;
51907;SDS011;39320;53.214;6.556;2023-08-06T07:59:59;2.38;;;2.10;;
51907;SDS011;39320;53.214;6.556;2023-08-06T08:02:25;2.20;;;2.00;;
51907;SDS011;39320;53.214;6.556;2023-08-06T08:04:51;3.47;;;2.45;;
51907;SDS011;39320;53.214;6.556;2023-08-06T08:07:17;2.38;;;2.17;;
51907;SDS011;39320;53.214;6.556;2023-08-06T08:09:43;2.38;;;2.17;;
51907;SDS011;39320;53.214;6.556;2023-08-06T08:12:09;2.15;;;1.80;;
51907;SDS011;39320;53.214;6.556;2023-08-06T08:14:34;2.25;;;2.05;;
51907;SDS011;39320;53.214;6.556;2023-08-06T08:17:02;2.08;;;1.73;;
51907;SDS011;39320;53.214;6.556;2023-08-06T08:19:29;2.45;;;2.13;;
51907;SDS011;39320;53.214;6.556;2023-08-06T08:21:54;2.58;;;2.20;;
51907;SDS011;39320;53.214;6.556;2023-08-06T08:24:20;2.05;;;1.90;;
51907;SDS011;39320;53.214;6.556;2023-08-06T08:26:49;1.98;;;1.85;;
51907;SDS011;39320;53.214;6.556;2023-08-06T08:29:18;2.63;;;2.10;;
51907;SDS011;39320;53.214;6.556;2023-08-06T08:31:45;3.00;;;2.35;;
51907;SDS011;39320;53.214;6.556;2023-08-06T08:34:11;1.80;;;1.63;;
51907;SDS011;39320;53.214;6.556;2023-08-06T08:36:36;2.88;;;1.70;;
51907;SDS011;39320;53.214;6.556;2023-08-06T08:39:02;1.90;;;1.60;;
51907;SDS011;39320;53.214;6.556;2023-08-06T08:41:30;3.25;;;1.45;;
51907;SDS011;39320;53.214;6.556;2023-08-06T08:43:56;1.70;;;1.40;;
51907;SDS011;39320;53.214;6.556;2023-08-06T08:46:25;1.58;;;1.48;;
51907;SDS011;39320;53.214;6.556;2023-08-06T08:48:54;1.70;;;1.13;;
51907;SDS011;39320;53.214;6.556;2023-08-06T08:51:20;1.63;;;1.38;;
51907;SDS011;39320;53.214;6.556;2023-08-06T08:53:47;1.60;;;1.45;;
51907;SDS011;39320;53.214;6.556;2023-08-06T08:56:17;1.90;;;1.63;;
51907;SDS011;39320;53.214;6.556;2023-08-06T08:58:44;1.77;;;1.42;;
51907;SDS011;39320;53.214;6.556;2023-08-06T09:01:10;1.42;;;1.33;;
51907;SDS011;39320;53.214;6.556;2023-08-06T09:03:37;1.50;;;1.30;;
51907;SDS011;39320;53.214;6.556;2023-08-06T09:06:04;1.90;;;1.08;;
51907;SDS011;39320;53.214;6.556;2023-08-06T09:08:33;1.27;;;1.15;;
51907;SDS011;39320;53.214;6.556;2023-08-06T09:11:02;1.40;;;1.30;;
51907;SDS011;39320;53.214;6.556;2023-08-06T09:13:30;2.67;;;1.30;;
51907;SDS011;39320;53.214;6.556;2023-08-06T09:15:55;1.70;;;1.50;;
51907;SDS011;39320;53.214;6.556;2023-08-06T09:18:25;2.03;;;1.40;;
51907;SDS011;39320;53.214;6.556;2023-08-06T09:20:54;2.92;;;1.45;;
51907;SDS011;39320;53.214;6.556;2023-08-06T09:23:20;2.08;;;1.23;;
51907;SDS011;39320;53.214;6.556;2023-08-06T09:25:46;1.75;;;1.13;;
51907;SDS011;39320;53.214;6.556;2023-08-06T09:28:12;2.15;;;1.48;;
51907;SDS011;39320;53.214;6.556;2023-08-06T09:30:37;1.80;;;1.40;;
51907;SDS011;39320;53.214;6.556;2023-08-06T09:33:08;1.30;;;1.20;;
51907;SDS011;39320;53.214;6.556;2023-08-06T09:35:39;1.60;;;1.25;;
51907;SDS011;39320;53.214;6.556;2023-08-06T09:38:05;2.05;;;1.35;;
51907;SDS011;39320;53.214;6.556;2023-08-06T09:40:35;2.13;;;1.02;;
51907;SDS011;39320;53.214;6.556;2023-08-06T09:43:02;1.40;;;1.00;;
51907;SDS011;39320;53.214;6.556;2023-08-06T09:45:30;1.77;;;1.20;;
51907;SDS011;39320;53.214;6.556;2023-08-06T09:47:58;1.40;;;0.98;;
51907;SDS011;39320;53.214;6.556;2023-08-06T09:50:28;1.60;;;1.00;;
51907;SDS011;39320;53.214;6.556;2023-08-06T09:52:56;1.48;;;0.95;;
51907;SDS011;39320;53.214;6.556;2023-08-06T09:55:23;2.00;;;1.08;;
51907;SDS011;39320;53.214;6.556;2023-08-06T09:57:50;0.98;;;0.82;;
51907;SDS011;39320;53.214;6.556;2023-08-06T10:00:16;1.48;;;1.00;;
51907;SDS011;39320;53.214;6.556;2023-08-06T10:02:43;1.08;;;0.82;;
51907;SDS011;39320;53.214;6.556;2023-08-06T10:05:10;2.28;;;1.05;;
51907;SDS011;39320;53.214;6.556;2023-08-06T10:07:36;1.25;;;0.95;;
51907;SDS011;39320;53.214;6.556;2023-08-06T10:10:04;1.88;;;1.08;;
51907;SDS011;39320;53.214;6.556;2023-08-06T10:12:40;0.93;;;0.82;;
51907;SDS011;39320;53.214;6.556;2023-08-06T10:15:12;1.45;;;0.98;;
51907;SDS011;39320;53.214;6.556;2023-08-06T10:17:42;1.48;;;0.95;;
51907;SDS011;39320;53.214;6.556;2023-08-06T10:20:10;1.40;;;1.15;;
51907;SDS011;39320;53.214;6.556;2023-08-06T10:22:37;2.40;;;1.20;;
51907;SDS011;39320;53.214;6.556;2023-08-06T10:25:09;0.90;;;0.70;;
51907;SDS011;39320;53.214;6.556;2023-08-06T10:27:36;0.85;;;0.70;;
51907;SDS011;39320;53.214;6.556;2023-08-06T10:32:58;1.38;;;1.05;;
51907;SDS011;39320;53.214;6.556;2023-08-06T10:35:29;1.58;;;0.70;;
51907;SDS011;39320;53.214;6.556;2023-08-06T10:38:18;1.10;;;1.00;;
51907;SDS011;39320;53.214;6.556;2023-08-06T10:43:26;1.52;;;0.90;;
51907;SDS011;39320;53.214;6.556;2023-08-06T10:45:53;1.13;;;1.02;;
51907;SDS011;39320;53.214;6.556;2023-08-06T10:50:56;1.55;;;0.90;;
51907;SDS011;39320;53.214;6.556;2023-08-06T10:53:21;1.20;;;1.00;;
51907;SDS011;39320;53.214;6.556;2023-08-06T10:55:47;1.00;;;0.90;;
51907;SDS011;39320;53.214;6.556;2023-08-06T10:58:15;1.00;;;0.90;;
51907;SDS011;39320;53.214;6.556;2023-08-06T11:00:41;0.85;;;0.80;;
51907;SDS011;39320;53.214;6.556;2023-08-06T11:03:07;1.02;;;0.93;;
51907;SDS011;39320;53.214;6.556;2023-08-06T11:05:34;1.00;;;0.80;;
51907;SDS011;39320;53.214;6.556;2023-08-06T11:08:00;1.15;;;0.70;;
51907;SDS011;39320;53.214;6.556;2023-08-06T11:10:26;1.10;;;0.73;;
51907;SDS011;39320;53.214;6.556;2023-08-06T11:12:52;1.27;;;0.77;;
51907;SDS011;39320;53.214;6.556;2023-08-06T11:15:19;1.02;;;0.70;;
51907;SDS011;39320;53.214;6.556;2023-08-06T11:17:45;1.05;;;0.90;;
51907;SDS011;39320;53.214;6.556;2023-08-06T11:20:11;1.42;;;0.80;;
51907;SDS011;39320;53.214;6.556;2023-08-06T11:22:37;0.90;;;0.80;;
51907;SDS011;39320;53.214;6.556;2023-08-06T11:25:04;1.70;;;0.80;;
51907;SDS011;39320;53.214;6.556;2023-08-06T11:27:33;0.63;;;0.63;;
51907;SDS011;39320;53.214;6.556;2023-08-06T11:29:59;0.80;;;0.80;;
51907;SDS011;39320;53.214;6.556;2023-08-06T11:32:25;1.10;;;0.90;;
51907;SDS011;39320;53.214;6.556;2023-08-06T11:34:52;1.40;;;0.88;;
51907;SDS011;39320;53.214;6.556;2023-08-06T11:37:23;1.52;;;1.00;;
51907;SDS011;39320;53.214;6.556;2023-08-06T11:39:50;1.17;;;0.70;;
51907;SDS011;39320;53.214;6.556;2023-08-06T11:42:16;1.38;;;0.90;;
51907;SDS011;39320;53.214;6.556;2023-08-06T11:44:42;1.40;;;0.93;;
51907;SDS011;39320;53.214;6.556;2023-08-06T11:47:12;0.80;;;0.70;;
51907;SDS011;39320;53.214;6.556;2023-08-06T11:49:44;0.93;;;0.90;;
51907;SDS011;39320;53.214;6.556;2023-08-06T11:52:22;1.85;;;1.00;;
51907;SDS011;39320;53.214;6.556;2023-08-06T11:57:35;1.05;;;0.80;;
51907;SDS011;39320;53.214;6.556;2023-08-06T12:00:02;1.65;;;0.88;;
51907;SDS011;39320;53.214;6.556;2023-08-06T12:02:35;1.48;;;0.93;;
51907;SDS011;39320;53.214;6.556;2023-08-06T12:05:21;0.70;;;0.70;;
51907;SDS011;39320;53.214;6.556;2023-08-06T12:07:50;1.27;;;0.88;;
51907;SDS011;39320;53.214;6.556;2023-08-06T12:10:18;2.53;;;1.00;;
51907;SDS011;39320;53.214;6.556;2023-08-06T12:12:45;1.27;;;0.80;;
51907;SDS011;39320;53.214;6.556;2023-08-06T12:15:11;1.20;;;0.80;;
51907;SDS011;39320;53.214;6.556;2023-08-06T12:17:37;1.15;;;0.90;;
51907;SDS011;39320;53.214;6.556;2023-08-06T12:20:04;1.45;;;1.00;;
51907;SDS011;39320;53.214;6.556;2023-08-06T12:22:31;1.15;;;0.60;;
51907;SDS011;39320;53.214;6.556;2023-08-06T12:25:18;1.25;;;0.80;;
51907;SDS011;39320;53.214;6.556;2023-08-06T12:27:44;0.68;;;0.43;;
51907;SDS011;39320;53.214;6.556;2023-08-06T12:30:11;1.52;;;1.00;;
51907;SDS011;39320;53.214;6.556;2023-08-06T12:32:38;1.48;;;0.85;;
51907;SDS011;39320;53.214;6.556;2023-08-06T12:35:04;1.17;;;0.88;;
51907;SDS011;39320;53.214;6.556;2023-08-06T12:37:32;1.30;;;0.63;;
51907;SDS011;39320;53.214;6.556;2023-08-06T12:39:58;1.00;;;0.70;;
51907;SDS011;39320;53.214;6.556;2023-08-06T12:42:24;1.58;;;0.80;;
51907;SDS011;39320;53.214;6.556;2023-08-06T12:44:50;2.03;;;0.80;;
51907;SDS011;39320;53.214;6.556;2023-08-06T12:47:16;1.58;;;0.93;;
51907;SDS011;39320;53.214;6.556;2023-08-06T12:49:42;1.25;;;0.73;;
51907;SDS011;39320;53.214;6.556;2023-08-06T12:52:08;1.30;;;0.75;;
51907;SDS011;39320;53.214;6.556;2023-08-06T12:54:34;1.38;;;0.80;;
51907;SDS011;39320;53.214;6.556;2023-08-06T12:57:03;2.40;;;0.77;;
51907;SDS011;39320;53.214;6.556;2023-08-06T12:59:29;2.85;;;0.90;;
51907;SDS011;39320;53.214;6.556;2023-08-06T13:01:55;2.15;;;0.90;;
51907;SDS011;39320;53.214;6.556;2023-08-06T13:04:21;1.70;;;0.82;;
51907;SDS011;39320;53.214;6.556;2023-08-06T13:06:46;1.30;;;1.17;;
51907;SDS011;39320;53.214;6.556;2023-08-06T13:09:12;1.38;;;0.80;;
51907;SDS011;39320;53.214;6.556;2023-08-06T13:11:39;1.05;;;0.73;;
51907;SDS011;39320;53.214;6.556;2023-08-06T13:14:06;0.88;;;0.70;;
51907;SDS011;39320;53.214;6.556;2023-08-06T13:16:34;1.90;;;0.70;;
51907;SDS011;39320;53.214;6.556;2023-08-06T13:19:01;0.60;;;0.60;;
51907;SDS011;39320;53.214;6.556;2023-08-06T13:24:00;1.75;;;0.82;;
51907;SDS011;39320;53.214;6.556;2023-08-06T13:26:29;1.20;;;0.80;;
51907;SDS011;39320;53.214;6.556;2023-08-06T13:28:59;1.17;;;0.93;;
51907;SDS011;39320;53.214;6.556;2023-08-06T13:31:25;1.23;;;0.90;;
51907;SDS011;39320;53.214;6.556;2023-08-06T13:33:51;2.42;;;1.23;;
51907;SDS011;39320;53.214;6.556;2023-08-06T13:36:19;1.58;;;1.00;;
51907;SDS011;39320;53.214;6.556;2023-08-06T13:38:45;0.73;;;0.63;;
51907;SDS011;39320;53.214;6.556;2023-08-06T13:41:10;1.25;;;0.88;;
51907;SDS011;39320;53.214;6.556;2023-08-06T13:43:36;2.13;;;0.88;;
51907;SDS011;39320;53.214;6.556;2023-08-06T13:46:02;1.10;;;0.77;;
51907;SDS011;39320;53.214;6.556;2023-08-06T13:48:27;0.68;;;0.60;;
51907;SDS011;39320;53.214;6.556;2023-08-06T13:50:53;0.63;;;0.52;;
51907;SDS011;39320;53.214;6.556;2023-08-06T13:53:19;1.23;;;0.70;;
51907;SDS011;39320;53.214;6.556;2023-08-06T13:55:44;0.93;;;0.90;;
51907;SDS011;39320;53.214;6.556;2023-08-06T13:58:10;1.77;;;0.80;;
51907;SDS011;39320;53.214;6.556;2023-08-06T14:00:36;1.23;;;0.70;;
51907;SDS011;39320;53.214;6.556;2023-08-06T14:03:02;0.80;;;0.73;;
51907;SDS011;39320;53.214;6.556;2023-08-06T14:05:27;1.00;;;0.60;;
51907;SDS011;39320;53.214;6.556;2023-08-06T14:07:53;1.35;;;0.60;;
51907;SDS011;39320;53.214;6.556;2023-08-06T14:10:19;0.85;;;0.60;;
51907;SDS011;39320;53.214;6.556;2023-08-06T14:12:45;0.90;;;0.73;;
51907;SDS011;39320;53.214;6.556;2023-08-06T14:15:10;0.98;;;0.77;;
51907;SDS011;39320;53.214;6.556;2023-08-06T14:17:36;2.10;;;0.85;;
51907;SDS011;39320;53.214;6.556;2023-08-06T14:20:03;1.25;;;0.98;;
51907;SDS011;39320;53.214;6.556;2023-08-06T14:22:29;0.93;;;0.70;;
51907;SDS011;39320;53.214;6.556;2023-08-06T14:24:57;0.80;;;0.68;;
51907;SDS011;39320;53.214;6.556;2023-08-06T14:27:23;1.13;;;0.65;;
51907;SDS011;39320;53.214;6.556;2023-08-06T14:29:49;1.10;;;0.50;;
51907;SDS011;39320;53.214;6.556;2023-08-06T14:32:14;1.13;;;0.70;;
51907;SDS011;39320;53.214;6.556;2023-08-06T14:34:43;1.25;;;0.80;;
51907;SDS011;39320;53.214;6.556;2023-08-06T14:37:09;0.80;;;0.80;;
51907;SDS011;39320;53.214;6.556;2023-08-06T14:39:35;0.90;;;0.68;;
51907;SDS011;39320;53.214;6.556;2023-08-06T14:42:01;1.50;;;0.65;;
51907;SDS011;39320;53.214;6.556;2023-08-06T14:44:28;1.02;;;0.65;;
51907;SDS011;39320;53.214;6.556;2023-08-06T14:46:54;1.30;;;0.68;;
51907;SDS011;39320;53.214;6.556;2023-08-06T14:49:19;1.45;;;0.80;;
51907;SDS011;39320;53.214;6.556;2023-08-06T14:51:45;0.52;;;0.52;;
51907;SDS011;39320;53.214;6.556;2023-08-06T14:54:11;2.08;;;0.80;;
51907;SDS011;39320;53.214;6.556;2023-08-06T14:56:36;0.88;;;0.60;;
51907;SDS011;39320;53.214;6.556;2023-08-06T14:59:02;1.00;;;0.63;;
51907;SDS011;39320;53.214;6.556;2023-08-06T15:01:28;1.00;;;0.77;;
51907;SDS011;39320;53.214;6.556;2023-08-06T15:03:54;1.27;;;0.77;;
51907;SDS011;39320;53.214;6.556;2023-08-06T15:06:19;0.82;;;0.57;;
51907;SDS011;39320;53.214;6.556;2023-08-06T15:08:45;0.85;;;0.82;;